KFCM/FCM METAR and TAF weather

Enter ICAO airport designator
Station Type Date Time Source
KFCM METAR 2021/05/14 05:53 UTC NOAA

KFCM 140553Z AUTO 17007KT 10SM BKN110 13/M01 A3020 RMK AO2 SLP228 T01281011 10200 20122 402170067 50004


Station Type Date Time Source
KFCM Decoded METAR 2021/05/14 05:53 UTC NOAA

Minneapolis, Flying Cloud Airport, MN, United States (KFCM) 44-49-56N 093-28-13W 280M
May 14, 2021 - 01:53 AM EDT / 2021.05.14 0553 UTC
Wind: from the S (170 degrees) at 8 MPH (7 KT):0
Visibility: 10 mile(s):0
Sky conditions: mostly cloudy
Temperature: 55.0 F (12.8 C)
Dew Point: 30.0 F (-1.1 C)
Relative Humidity: 38%
Pressure (altimeter): 30.2 in. Hg (1022 hPa)
Pressure tendency: 0.01 inches (0.4 hPa) higher than three hours ago
ob: KFCM 140553Z AUTO 17007KT 10SM BKN110 13/M01 A3020 RMK AO2 SLP228 T01281011 10200 20122 402170067 50004
cycle: 6

Station Type Date Time Source
KFCM TAF 2018/02/05 20:59 UTC NOAA

TAF
AMD KFCM 051959Z 0520/0618 27007KT 6SM -SHSN BKN020 OVC050
TEMPO 0520/0522 SCT020 BKN050
FM052200 27007KT P6SM FEW020 BKN100
FM060100 31007KT P6SM FEW200
FM061000 VRB03KT P6SM FEW250
AMD NOT SKED

Example: see airport list